Augusta, New York
Current Conditions -  °F | °C
As of 3:35 AM on Sunday 23 Nov 2014 (Local Time) from KRME Reporting Station
Moderate Rain Moderate Rain  
Wind Chill: 34°   Ceiling: 3100
Heat Index: 39°   Visibility: 4mi
Dew Point: 38°   Wind: 7mph
Humidity: 96%   Direction: 80°E
Pressure: 30.05"   Gusts: NA
Location:  42.9771°N, 75.5023°W
Report Text: KRME 230835Z AUTO 08006KT 4SM RA BR OVC031 04/03 A3005 RMK AO2 P0003 T00390033
Loading
Personal Weather Stations






























Interactive Weather Map New forecast layout! Learn more

10-Day Weather Forecast

Advertisements
Track Severe Weather on mobile